sensor_id;sensor_type;location;lat;lon;timestamp;P1;durP1;ratioP1;P2;durP2;ratioP2
6342;SDS011;3204;42.698;23.298;2023-11-22T00:02:19;65.33;;;35.83;;
6342;SDS011;3204;42.698;23.298;2023-11-22T00:04:45;63.77;;;37.10;;
6342;SDS011;3204;42.698;23.298;2023-11-22T00:07:11;72.27;;;41.03;;
6342;SDS011;3204;42.698;23.298;2023-11-22T00:09:37;75.67;;;40.20;;
6342;SDS011;3204;42.698;23.298;2023-11-22T00:12:02;67.83;;;38.67;;
6342;SDS011;3204;42.698;23.298;2023-11-22T00:14:28;68.87;;;38.27;;
6342;SDS011;3204;42.698;23.298;2023-11-22T00:16:54;75.77;;;38.90;;
6342;SDS011;3204;42.698;23.298;2023-11-22T00:19:19;72.03;;;39.87;;
6342;SDS011;3204;42.698;23.298;2023-11-22T00:21:47;80.80;;;40.03;;
6342;SDS011;3204;42.698;23.298;2023-11-22T00:24:13;80.13;;;42.23;;
6342;SDS011;3204;42.698;23.298;2023-11-22T00:26:39;84.43;;;43.33;;
6342;SDS011;3204;42.698;23.298;2023-11-22T00:29:04;81.07;;;40.53;;
6342;SDS011;3204;42.698;23.298;2023-11-22T00:31:30;76.83;;;40.53;;
6342;SDS011;3204;42.698;23.298;2023-11-22T00:33:55;71.87;;;39.57;;
6342;SDS011;3204;42.698;23.298;2023-11-22T00:36:21;80.90;;;43.67;;
6342;SDS011;3204;42.698;23.298;2023-11-22T00:38:46;74.47;;;41.33;;
6342;SDS011;3204;42.698;23.298;2023-11-22T00:41:12;75.27;;;40.93;;
6342;SDS011;3204;42.698;23.298;2023-11-22T00:43:40;73.13;;;39.47;;
6342;SDS011;3204;42.698;23.298;2023-11-22T00:46:06;67.03;;;37.67;;
6342;SDS011;3204;42.698;23.298;2023-11-22T00:48:31;79.20;;;38.70;;
6342;SDS011;3204;42.698;23.298;2023-11-22T00:50:57;67.77;;;37.13;;
6342;SDS011;3204;42.698;23.298;2023-11-22T00:53:23;62.70;;;34.73;;
6342;SDS011;3204;42.698;23.298;2023-11-22T00:55:48;58.97;;;33.07;;
6342;SDS011;3204;42.698;23.298;2023-11-22T00:58:14;61.40;;;34.73;;
6342;SDS011;3204;42.698;23.298;2023-11-22T01:00:39;56.00;;;32.60;;
6342;SDS011;3204;42.698;23.298;2023-11-22T01:03:05;65.03;;;33.37;;
6342;SDS011;3204;42.698;23.298;2023-11-22T01:05:34;69.43;;;39.87;;
6342;SDS011;3204;42.698;23.298;2023-11-22T01:07:59;62.50;;;35.57;;
6342;SDS011;3204;42.698;23.298;2023-11-22T01:10:24;59.67;;;35.50;;
6342;SDS011;3204;42.698;23.298;2023-11-22T01:12:50;64.77;;;34.27;;
6342;SDS011;3204;42.698;23.298;2023-11-22T01:15:15;59.33;;;34.47;;
6342;SDS011;3204;42.698;23.298;2023-11-22T01:17:41;55.77;;;31.77;;
6342;SDS011;3204;42.698;23.298;2023-11-22T01:20:07;55.00;;;29.93;;
6342;SDS011;3204;42.698;23.298;2023-11-22T01:22:34;48.50;;;29.77;;
6342;SDS011;3204;42.698;23.298;2023-11-22T01:25:00;47.07;;;29.10;;
6342;SDS011;3204;42.698;23.298;2023-11-22T01:27:26;54.47;;;30.07;;
6342;SDS011;3204;42.698;23.298;2023-11-22T01:29:52;59.47;;;32.87;;
6342;SDS011;3204;42.698;23.298;2023-11-22T01:32:19;51.27;;;29.83;;
6342;SDS011;3204;42.698;23.298;2023-11-22T01:34:46;49.67;;;29.80;;
6342;SDS011;3204;42.698;23.298;2023-11-22T01:37:11;47.80;;;29.47;;
6342;SDS011;3204;42.698;23.298;2023-11-22T01:39:39;53.57;;;29.43;;
6342;SDS011;3204;42.698;23.298;2023-11-22T01:42:05;49.90;;;29.33;;
6342;SDS011;3204;42.698;23.298;2023-11-22T01:44:31;51.17;;;29.57;;
6342;SDS011;3204;42.698;23.298;2023-11-22T01:46:57;47.57;;;29.20;;
6342;SDS011;3204;42.698;23.298;2023-11-22T01:49:23;51.07;;;29.43;;
6342;SDS011;3204;42.698;23.298;2023-11-22T01:51:49;46.23;;;29.33;;
6342;SDS011;3204;42.698;23.298;2023-11-22T01:54:14;39.77;;;25.03;;
6342;SDS011;3204;42.698;23.298;2023-11-22T01:56:42;45.77;;;26.93;;
6342;SDS011;3204;42.698;23.298;2023-11-22T01:59:09;44.77;;;25.83;;
6342;SDS011;3204;42.698;23.298;2023-11-22T02:01:35;43.43;;;25.90;;
6342;SDS011;3204;42.698;23.298;2023-11-22T02:04:00;37.60;;;24.33;;
6342;SDS011;3204;42.698;23.298;2023-11-22T02:06:26;40.37;;;23.53;;
6342;SDS011;3204;42.698;23.298;2023-11-22T02:08:51;40.30;;;23.30;;
6342;SDS011;3204;42.698;23.298;2023-11-22T02:11:17;42.73;;;25.17;;
6342;SDS011;3204;42.698;23.298;2023-11-22T02:13:50;47.60;;;27.17;;
6342;SDS011;3204;42.698;23.298;2023-11-22T02:16:16;36.20;;;22.27;;
6342;SDS011;3204;42.698;23.298;2023-11-22T02:18:45;31.93;;;20.67;;
6342;SDS011;3204;42.698;23.298;2023-11-22T02:21:12;33.87;;;21.40;;
6342;SDS011;3204;42.698;23.298;2023-11-22T02:23:40;36.17;;;23.03;;
6342;SDS011;3204;42.698;23.298;2023-11-22T02:26:05;29.27;;;21.13;;
6342;SDS011;3204;42.698;23.298;2023-11-22T02:28:31;34.67;;;21.60;;
6342;SDS011;3204;42.698;23.298;2023-11-22T02:30:56;27.00;;;20.43;;
6342;SDS011;3204;42.698;23.298;2023-11-22T02:33:21;31.87;;;19.60;;
6342;SDS011;3204;42.698;23.298;2023-11-22T02:35:47;33.60;;;19.33;;
6342;SDS011;3204;42.698;23.298;2023-11-22T02:38:12;28.57;;;17.73;;
6342;SDS011;3204;42.698;23.298;2023-11-22T02:40:38;26.33;;;18.47;;
6342;SDS011;3204;42.698;23.298;2023-11-22T02:43:03;24.67;;;17.40;;
6342;SDS011;3204;42.698;23.298;2023-11-22T02:45:33;30.53;;;18.17;;
6342;SDS011;3204;42.698;23.298;2023-11-22T02:47:59;24.77;;;18.37;;
6342;SDS011;3204;42.698;23.298;2023-11-22T02:50:26;26.33;;;17.80;;
6342;SDS011;3204;42.698;23.298;2023-11-22T02:52:52;28.30;;;18.27;;
6342;SDS011;3204;42.698;23.298;2023-11-22T02:55:18;29.53;;;18.87;;
6342;SDS011;3204;42.698;23.298;2023-11-22T02:57:44;25.90;;;19.37;;
6342;SDS011;3204;42.698;23.298;2023-11-22T03:00:10;28.90;;;18.97;;
6342;SDS011;3204;42.698;23.298;2023-11-22T03:02:39;35.13;;;19.23;;
6342;SDS011;3204;42.698;23.298;2023-11-22T03:05:07;32.77;;;20.27;;
6342;SDS011;3204;42.698;23.298;2023-11-22T03:07:35;30.97;;;18.80;;
6342;SDS011;3204;42.698;23.298;2023-11-22T03:10:02;32.37;;;20.10;;
6342;SDS011;3204;42.698;23.298;2023-11-22T03:12:28;35.83;;;20.00;;
6342;SDS011;3204;42.698;23.298;2023-11-22T03:14:53;30.30;;;18.73;;
6342;SDS011;3204;42.698;23.298;2023-11-22T03:17:23;28.50;;;19.07;;
6342;SDS011;3204;42.698;23.298;2023-11-22T03:19:49;25.27;;;18.67;;
6342;SDS011;3204;42.698;23.298;2023-11-22T03:22:14;28.83;;;19.43;;
6342;SDS011;3204;42.698;23.298;2023-11-22T03:24:40;29.00;;;19.50;;
6342;SDS011;3204;42.698;23.298;2023-11-22T03:27:05;32.00;;;20.43;;
6342;SDS011;3204;42.698;23.298;2023-11-22T03:29:31;34.57;;;20.77;;
6342;SDS011;3204;42.698;23.298;2023-11-22T03:31:57;31.90;;;20.27;;
6342;SDS011;3204;42.698;23.298;2023-11-22T03:34:23;29.03;;;20.10;;
6342;SDS011;3204;42.698;23.298;2023-11-22T03:36:48;38.87;;;20.83;;
6342;SDS011;3204;42.698;23.298;2023-11-22T03:39:15;30.30;;;20.80;;
6342;SDS011;3204;42.698;23.298;2023-11-22T03:41:41;31.63;;;20.50;;
6342;SDS011;3204;42.698;23.298;2023-11-22T03:44:07;30.73;;;19.53;;
6342;SDS011;3204;42.698;23.298;2023-11-22T03:46:34;43.27;;;20.37;;
6342;SDS011;3204;42.698;23.298;2023-11-22T03:49:01;39.07;;;20.67;;
6342;SDS011;3204;42.698;23.298;2023-11-22T03:51:28;32.90;;;19.60;;
6342;SDS011;3204;42.698;23.298;2023-11-22T03:53:53;29.33;;;19.43;;
6342;SDS011;3204;42.698;23.298;2023-11-22T03:56:18;35.57;;;19.50;;
6342;SDS011;3204;42.698;23.298;2023-11-22T03:58:44;30.90;;;18.40;;
6342;SDS011;3204;42.698;23.298;2023-11-22T04:01:09;41.17;;;21.33;;
6342;SDS011;3204;42.698;23.298;2023-11-22T04:03:35;36.30;;;21.27;;
6342;SDS011;3204;42.698;23.298;2023-11-22T04:06:00;43.40;;;21.80;;
6342;SDS011;3204;42.698;23.298;2023-11-22T04:08:26;34.07;;;21.27;;
6342;SDS011;3204;42.698;23.298;2023-11-22T04:10:51;35.10;;;21.63;;
6342;SDS011;3204;42.698;23.298;2023-11-22T04:13:17;34.30;;;20.53;;
6342;SDS011;3204;42.698;23.298;2023-11-22T04:15:42;37.27;;;21.10;;
6342;SDS011;3204;42.698;23.298;2023-11-22T04:18:07;30.27;;;21.50;;
6342;SDS011;3204;42.698;23.298;2023-11-22T04:20:33;41.57;;;22.57;;
6342;SDS011;3204;42.698;23.298;2023-11-22T04:22:59;33.93;;;22.00;;
6342;SDS011;3204;42.698;23.298;2023-11-22T04:25:24;40.77;;;22.77;;
6342;SDS011;3204;42.698;23.298;2023-11-22T04:27:50;35.43;;;20.90;;
6342;SDS011;3204;42.698;23.298;2023-11-22T04:30:15;44.63;;;22.60;;
6342;SDS011;3204;42.698;23.298;2023-11-22T04:32:42;38.70;;;22.60;;
6342;SDS011;3204;42.698;23.298;2023-11-22T04:35:08;42.77;;;23.07;;
6342;SDS011;3204;42.698;23.298;2023-11-22T04:37:35;44.53;;;22.57;;
6342;SDS011;3204;42.698;23.298;2023-11-22T04:40:00;41.17;;;22.10;;
6342;SDS011;3204;42.698;23.298;2023-11-22T04:42:26;40.50;;;22.80;;
6342;SDS011;3204;42.698;23.298;2023-11-22T04:44:53;36.97;;;21.60;;
6342;SDS011;3204;42.698;23.298;2023-11-22T04:47:19;37.70;;;21.47;;
6342;SDS011;3204;42.698;23.298;2023-11-22T04:49:44;38.90;;;23.40;;
6342;SDS011;3204;42.698;23.298;2023-11-22T04:52:09;36.20;;;21.87;;
6342;SDS011;3204;42.698;23.298;2023-11-22T04:54:35;51.67;;;25.97;;
6342;SDS011;3204;42.698;23.298;2023-11-22T04:57:00;69.17;;;33.00;;
6342;SDS011;3204;42.698;23.298;2023-11-22T04:59:26;56.83;;;29.73;;
6342;SDS011;3204;42.698;23.298;2023-11-22T05:01:51;53.90;;;29.70;;
6342;SDS011;3204;42.698;23.298;2023-11-22T05:04:16;48.33;;;25.60;;
6342;SDS011;3204;42.698;23.298;2023-11-22T05:06:43;47.13;;;27.13;;
6342;SDS011;3204;42.698;23.298;2023-11-22T05:09:09;36.70;;;23.53;;
6342;SDS011;3204;42.698;23.298;2023-11-22T05:11:36;38.23;;;22.60;;
6342;SDS011;3204;42.698;23.298;2023-11-22T05:14:01;41.47;;;23.20;;
6342;SDS011;3204;42.698;23.298;2023-11-22T05:16:27;38.43;;;23.33;;
6342;SDS011;3204;42.698;23.298;2023-11-22T05:18:52;41.63;;;24.47;;
6342;SDS011;3204;42.698;23.298;2023-11-22T05:21:18;38.07;;;23.23;;
6342;SDS011;3204;42.698;23.298;2023-11-22T05:23:43;36.37;;;23.47;;
6342;SDS011;3204;42.698;23.298;2023-11-22T05:26:09;48.60;;;26.80;;
6342;SDS011;3204;42.698;23.298;2023-11-22T05:28:34;45.60;;;26.77;;
6342;SDS011;3204;42.698;23.298;2023-11-22T05:31:00;43.50;;;25.00;;
6342;SDS011;3204;42.698;23.298;2023-11-22T05:33:25;44.23;;;24.97;;
6342;SDS011;3204;42.698;23.298;2023-11-22T05:35:50;46.80;;;25.73;;
6342;SDS011;3204;42.698;23.298;2023-11-22T05:38:16;51.07;;;28.70;;
6342;SDS011;3204;42.698;23.298;2023-11-22T05:40:41;46.30;;;27.40;;
6342;SDS011;3204;42.698;23.298;2023-11-22T05:43:08;44.77;;;26.30;;
6342;SDS011;3204;42.698;23.298;2023-11-22T05:45:34;45.03;;;26.33;;
6342;SDS011;3204;42.698;23.298;2023-11-22T05:48:00;43.17;;;26.47;;
6342;SDS011;3204;42.698;23.298;2023-11-22T05:50:26;51.83;;;26.33;;
6342;SDS011;3204;42.698;23.298;2023-11-22T05:52:51;47.73;;;25.20;;
6342;SDS011;3204;42.698;23.298;2023-11-22T05:55:17;38.27;;;24.60;;
6342;SDS011;3204;42.698;23.298;2023-11-22T05:57:43;35.77;;;23.00;;
6342;SDS011;3204;42.698;23.298;2023-11-22T06:00:09;47.97;;;27.33;;
6342;SDS011;3204;42.698;23.298;2023-11-22T06:02:35;57.53;;;31.50;;
6342;SDS011;3204;42.698;23.298;2023-11-22T06:05:02;52.50;;;30.73;;
6342;SDS011;3204;42.698;23.298;2023-11-22T06:07:28;40.57;;;26.50;;
6342;SDS011;3204;42.698;23.298;2023-11-22T06:09:54;40.83;;;25.63;;
6342;SDS011;3204;42.698;23.298;2023-11-22T06:12:19;36.90;;;24.10;;
6342;SDS011;3204;42.698;23.298;2023-11-22T06:14:45;40.07;;;26.33;;
6342;SDS011;3204;42.698;23.298;2023-11-22T06:17:11;41.37;;;26.00;;
6342;SDS011;3204;42.698;23.298;2023-11-22T06:19:37;42.70;;;26.00;;
6342;SDS011;3204;42.698;23.298;2023-11-22T06:22:03;47.17;;;27.30;;
6342;SDS011;3204;42.698;23.298;2023-11-22T06:24:28;40.10;;;25.73;;
6342;SDS011;3204;42.698;23.298;2023-11-22T06:26:53;37.33;;;26.30;;
6342;SDS011;3204;42.698;23.298;2023-11-22T06:29:19;38.60;;;24.53;;
6342;SDS011;3204;42.698;23.298;2023-11-22T06:31:45;38.87;;;23.77;;
6342;SDS011;3204;42.698;23.298;2023-11-22T06:34:10;41.27;;;24.87;;
6342;SDS011;3204;42.698;23.298;2023-11-22T06:36:36;46.27;;;25.67;;
6342;SDS011;3204;42.698;23.298;2023-11-22T06:39:01;42.20;;;25.00;;
6342;SDS011;3204;42.698;23.298;2023-11-22T06:41:27;40.97;;;24.80;;
6342;SDS011;3204;42.698;23.298;2023-11-22T06:43:53;42.07;;;26.77;;
6342;SDS011;3204;42.698;23.298;2023-11-22T06:46:19;46.17;;;29.53;;
6342;SDS011;3204;42.698;23.298;2023-11-22T06:48:44;44.53;;;27.30;;
6342;SDS011;3204;42.698;23.298;2023-11-22T06:51:10;47.53;;;28.57;;
6342;SDS011;3204;42.698;23.298;2023-11-22T06:53:35;43.33;;;26.93;;
6342;SDS011;3204;42.698;23.298;2023-11-22T06:56:01;44.60;;;27.00;;
6342;SDS011;3204;42.698;23.298;2023-11-22T06:58:26;41.10;;;26.33;;
6342;SDS011;3204;42.698;23.298;2023-11-22T07:00:52;37.47;;;25.20;;
6342;SDS011;3204;42.698;23.298;2023-11-22T07:03:18;43.80;;;26.17;;
6342;SDS011;3204;42.698;23.298;2023-11-22T07:05:43;42.07;;;25.73;;
6342;SDS011;3204;42.698;23.298;2023-11-22T07:08:09;46.87;;;27.43;;
6342;SDS011;3204;42.698;23.298;2023-11-22T07:10:36;49.47;;;29.13;;
6342;SDS011;3204;42.698;23.298;2023-11-22T07:13:01;58.10;;;28.97;;
6342;SDS011;3204;42.698;23.298;2023-11-22T07:15:27;49.63;;;27.70;;
6342;SDS011;3204;42.698;23.298;2023-11-22T07:17:52;50.07;;;27.07;;
6342;SDS011;3204;42.698;23.298;2023-11-22T07:20:19;48.87;;;28.53;;
6342;SDS011;3204;42.698;23.298;2023-11-22T07:22:45;49.77;;;29.40;;
6342;SDS011;3204;42.698;23.298;2023-11-22T07:25:11;48.30;;;28.63;;
6342;SDS011;3204;42.698;23.298;2023-11-22T07:27:46;45.00;;;29.00;;
6342;SDS011;3204;42.698;23.298;2023-11-22T07:30:14;44.17;;;27.57;;
6342;SDS011;3204;42.698;23.298;2023-11-22T07:32:40;57.70;;;28.53;;
6342;SDS011;3204;42.698;23.298;2023-11-22T07:35:07;48.30;;;27.50;;
6342;SDS011;3204;42.698;23.298;2023-11-22T07:37:35;46.17;;;27.30;;
6342;SDS011;3204;42.698;23.298;2023-11-22T07:40:01;50.17;;;28.97;;
6342;SDS011;3204;42.698;23.298;2023-11-22T07:42:28;52.20;;;31.27;;
6342;SDS011;3204;42.698;23.298;2023-11-22T07:44:54;52.53;;;29.83;;
6342;SDS011;3204;42.698;23.298;2023-11-22T07:47:21;48.70;;;31.97;;
6342;SDS011;3204;42.698;23.298;2023-11-22T07:49:48;53.63;;;31.83;;
6342;SDS011;3204;42.698;23.298;2023-11-22T07:52:13;52.47;;;30.43;;
6342;SDS011;3204;42.698;23.298;2023-11-22T07:54:39;49.37;;;30.50;;
6342;SDS011;3204;42.698;23.298;2023-11-22T07:57:05;59.70;;;31.37;;
6342;SDS011;3204;42.698;23.298;2023-11-22T07:59:32;48.93;;;31.03;;
6342;SDS011;3204;42.698;23.298;2023-11-22T08:01:58;50.30;;;31.57;;
6342;SDS011;3204;42.698;23.298;2023-11-22T08:04:23;47.57;;;31.83;;
6342;SDS011;3204;42.698;23.298;2023-11-22T08:06:48;49.33;;;31.00;;
6342;SDS011;3204;42.698;23.298;2023-11-22T08:09:14;52.03;;;33.77;;
6342;SDS011;3204;42.698;23.298;2023-11-22T08:11:41;51.67;;;32.17;;
6342;SDS011;3204;42.698;23.298;2023-11-22T08:14:07;47.13;;;31.30;;
6342;SDS011;3204;42.698;23.298;2023-11-22T08:16:33;44.73;;;28.30;;
6342;SDS011;3204;42.698;23.298;2023-11-22T08:19:03;37.73;;;24.37;;
6342;SDS011;3204;42.698;23.298;2023-11-22T08:21:30;33.30;;;22.90;;
6342;SDS011;3204;42.698;23.298;2023-11-22T08:23:55;32.77;;;22.43;;
6342;SDS011;3204;42.698;23.298;2023-11-22T08:26:21;28.63;;;20.10;;
6342;SDS011;3204;42.698;23.298;2023-11-22T08:28:46;30.07;;;19.17;;
6342;SDS011;3204;42.698;23.298;2023-11-22T08:31:12;25.50;;;18.07;;
6342;SDS011;3204;42.698;23.298;2023-11-22T08:33:37;23.63;;;16.57;;
6342;SDS011;3204;42.698;23.298;2023-11-22T08:36:06;20.07;;;15.87;;
6342;SDS011;3204;42.698;23.298;2023-11-22T08:38:33;16.70;;;14.90;;
6342;SDS011;3204;42.698;23.298;2023-11-22T08:41:07;28.80;;;16.70;;
6342;SDS011;3204;42.698;23.298;2023-11-22T08:43:38;26.47;;;18.80;;
6342;SDS011;3204;42.698;23.298;2023-11-22T08:46:03;26.80;;;20.23;;
6342;SDS011;3204;42.698;23.298;2023-11-22T08:48:30;25.23;;;19.10;;
6342;SDS011;3204;42.698;23.298;2023-11-22T08:50:55;24.83;;;17.80;;
6342;SDS011;3204;42.698;23.298;2023-11-22T08:53:22;22.47;;;16.57;;
6342;SDS011;3204;42.698;23.298;2023-11-22T08:55:48;21.67;;;16.97;;
6342;SDS011;3204;42.698;23.298;2023-11-22T08:58:13;30.93;;;17.67;;
6342;SDS011;3204;42.698;23.298;2023-11-22T09:00:39;25.20;;;18.70;;
6342;SDS011;3204;42.698;23.298;2023-11-22T09:03:06;30.90;;;21.03;;
6342;SDS011;3204;42.698;23.298;2023-11-22T09:05:40;32.67;;;20.67;;
6342;SDS011;3204;42.698;23.298;2023-11-22T09:08:06;29.67;;;21.77;;
6342;SDS011;3204;42.698;23.298;2023-11-22T09:10:31;32.40;;;21.67;;
6342;SDS011;3204;42.698;23.298;2023-11-22T09:12:57;26.33;;;20.17;;
6342;SDS011;3204;42.698;23.298;2023-11-22T09:15:24;31.27;;;18.83;;
6342;SDS011;3204;42.698;23.298;2023-11-22T09:17:52;36.53;;;19.77;;
6342;SDS011;3204;42.698;23.298;2023-11-22T09:20:18;28.23;;;20.17;;
6342;SDS011;3204;42.698;23.298;2023-11-22T09:22:48;29.37;;;19.77;;
6342;SDS011;3204;42.698;23.298;2023-11-22T09:25:18;32.60;;;19.97;;
6342;SDS011;3204;42.698;23.298;2023-11-22T09:27:45;28.53;;;18.67;;
6342;SDS011;3204;42.698;23.298;2023-11-22T09:30:12;23.10;;;17.27;;
6342;SDS011;3204;42.698;23.298;2023-11-22T09:33:07;24.00;;;18.03;;
6342;SDS011;3204;42.698;23.298;2023-11-22T09:35:34;23.53;;;17.90;;
6342;SDS011;3204;42.698;23.298;2023-11-22T09:38:05;27.57;;;19.47;;
6342;SDS011;3204;42.698;23.298;2023-11-22T09:40:41;29.60;;;20.07;;
6342;SDS011;3204;42.698;23.298;2023-11-22T09:43:08;33.60;;;22.63;;
6342;SDS011;3204;42.698;23.298;2023-11-22T09:45:34;32.00;;;23.00;;
6342;SDS011;3204;42.698;23.298;2023-11-22T09:48:01;35.27;;;22.57;;
6342;SDS011;3204;42.698;23.298;2023-11-22T09:50:35;42.33;;;27.77;;
6342;SDS011;3204;42.698;23.298;2023-11-22T09:53:07;35.77;;;22.13;;
6342;SDS011;3204;42.698;23.298;2023-11-22T09:55:37;33.53;;;23.13;;
6342;SDS011;3204;42.698;23.298;2023-11-22T09:58:02;38.10;;;23.83;;
6342;SDS011;3204;42.698;23.298;2023-11-22T10:00:29;37.23;;;24.33;;
6342;SDS011;3204;42.698;23.298;2023-11-22T10:02:56;37.13;;;24.73;;
6342;SDS011;3204;42.698;23.298;2023-11-22T10:05:23;40.27;;;23.33;;
6342;SDS011;3204;42.698;23.298;2023-11-22T10:07:49;40.17;;;22.23;;
6342;SDS011;3204;42.698;23.298;2023-11-22T10:10:15;33.43;;;21.83;;
6342;SDS011;3204;42.698;23.298;2023-11-22T10:12:44;38.70;;;23.67;;
6342;SDS011;3204;42.698;23.298;2023-11-22T10:17:39;31.73;;;24.03;;
6342;SDS011;3204;42.698;23.298;2023-11-22T10:20:05;30.63;;;22.80;;
6342;SDS011;3204;42.698;23.298;2023-11-22T10:22:44;35.80;;;22.70;;
6342;SDS011;3204;42.698;23.298;2023-11-22T10:25:13;32.77;;;21.17;;
6342;SDS011;3204;42.698;23.298;2023-11-22T10:27:45;25.73;;;19.43;;
6342;SDS011;3204;42.698;23.298;2023-11-22T10:30:12;24.63;;;18.43;;
6342;SDS011;3204;42.698;23.298;2023-11-22T10:32:40;27.30;;;19.75;;
6342;SDS011;3204;42.698;23.298;2023-11-22T10:35:06;27.40;;;19.47;;
6342;SDS011;3204;42.698;23.298;2023-11-22T10:37:33;27.97;;;19.20;;
6342;SDS011;3204;42.698;23.298;2023-11-22T10:39:59;30.95;;;20.63;;
6342;SDS011;3204;42.698;23.298;2023-11-22T10:42:24;27.73;;;20.52;;
6342;SDS011;3204;42.698;23.298;2023-11-22T10:44:53;27.63;;;20.27;;
6342;SDS011;3204;42.698;23.298;2023-11-22T10:47:22;31.93;;;21.37;;
6342;SDS011;3204;42.698;23.298;2023-11-22T10:49:49;31.77;;;20.67;;
6342;SDS011;3204;42.698;23.298;2023-11-22T10:52:14;30.92;;;21.83;;
6342;SDS011;3204;42.698;23.298;2023-11-22T10:54:44;30.07;;;21.93;;
6342;SDS011;3204;42.698;23.298;2023-11-22T10:57:16;30.10;;;21.38;;
6342;SDS011;3204;42.698;23.298;2023-11-22T10:59:48;35.05;;;21.88;;
6342;SDS011;3204;42.698;23.298;2023-11-22T11:02:19;32.28;;;20.00;;
6342;SDS011;3204;42.698;23.298;2023-11-22T11:04:47;29.20;;;20.90;;
6342;SDS011;3204;42.698;23.298;2023-11-22T11:07:19;32.38;;;20.98;;
6342;SDS011;3204;42.698;23.298;2023-11-22T11:09:47;28.55;;;19.27;;
6342;SDS011;3204;42.698;23.298;2023-11-22T11:12:16;30.73;;;21.88;;
6342;SDS011;3204;42.698;23.298;2023-11-22T11:14:43;36.72;;;21.35;;
6342;SDS011;3204;42.698;23.298;2023-11-22T11:17:11;29.55;;;21.20;;
6342;SDS011;3204;42.698;23.298;2023-11-22T11:19:39;27.27;;;20.70;;
6342;SDS011;3204;42.698;23.298;2023-11-22T11:22:09;29.42;;;21.58;;
6342;SDS011;3204;42.698;23.298;2023-11-22T11:24:38;31.83;;;22.53;;
6342;SDS011;3204;42.698;23.298;2023-11-22T11:27:06;31.08;;;21.85;;
6342;SDS011;3204;42.698;23.298;2023-11-22T11:29:33;28.10;;;21.83;;
6342;SDS011;3204;42.698;23.298;2023-11-22T11:32:04;31.70;;;22.40;;
6342;SDS011;3204;42.698;23.298;2023-11-22T11:34:29;33.80;;;22.33;;
6342;SDS011;3204;42.698;23.298;2023-11-22T11:36:55;30.88;;;23.10;;
6342;SDS011;3204;42.698;23.298;2023-11-22T11:39:24;33.27;;;22.93;;
6342;SDS011;3204;42.698;23.298;2023-11-22T11:42:11;29.88;;;22.65;;
6342;SDS011;3204;42.698;23.298;2023-11-22T11:44:45;30.63;;;24.33;;
6342;SDS011;3204;42.698;23.298;2023-11-22T11:47:24;36.97;;;24.90;;
6342;SDS011;3204;42.698;23.298;2023-11-22T11:49:50;34.42;;;25.30;;
6342;SDS011;3204;42.698;23.298;2023-11-22T11:52:15;37.10;;;26.00;;
6342;SDS011;3204;42.698;23.298;2023-11-22T11:54:41;34.85;;;26.02;;
6342;SDS011;3204;42.698;23.298;2023-11-22T11:57:06;40.30;;;26.85;;
6342;SDS011;3204;42.698;23.298;2023-11-22T11:59:33;38.78;;;27.45;;
6342;SDS011;3204;42.698;23.298;2023-11-22T12:02:00;36.40;;;26.58;;
6342;SDS011;3204;42.698;23.298;2023-11-22T12:04:25;37.35;;;25.60;;
6342;SDS011;3204;42.698;23.298;2023-11-22T12:06:51;41.80;;;28.10;;
6342;SDS011;3204;42.698;23.298;2023-11-22T12:09:23;47.80;;;34.10;;
6342;SDS011;3204;42.698;23.298;2023-11-22T12:11:50;43.92;;;30.77;;
6342;SDS011;3204;42.698;23.298;2023-11-22T12:14:16;39.23;;;28.33;;
6342;SDS011;3204;42.698;23.298;2023-11-22T12:16:41;39.70;;;24.92;;
6342;SDS011;3204;42.698;23.298;2023-11-22T12:19:08;26.77;;;18.30;;
6342;SDS011;3204;42.698;23.298;2023-11-22T12:21:36;25.88;;;18.83;;
6342;SDS011;3204;42.698;23.298;2023-11-22T12:24:02;23.90;;;18.52;;
6342;SDS011;3204;42.698;23.298;2023-11-22T12:26:31;22.05;;;16.88;;
6342;SDS011;3204;42.698;23.298;2023-11-22T12:28:58;22.58;;;16.90;;
6342;SDS011;3204;42.698;23.298;2023-11-22T12:31:23;22.10;;;16.05;;
6342;SDS011;3204;42.698;23.298;2023-11-22T12:33:49;22.45;;;16.40;;
6342;SDS011;3204;42.698;23.298;2023-11-22T12:36:15;22.33;;;16.45;;
6342;SDS011;3204;42.698;23.298;2023-11-22T12:38:42;25.27;;;16.20;;
6342;SDS011;3204;42.698;23.298;2023-11-22T12:41:07;25.95;;;15.63;;
6342;SDS011;3204;42.698;23.298;2023-11-22T12:43:34;21.67;;;15.10;;
6342;SDS011;3204;42.698;23.298;2023-11-22T12:46:00;20.17;;;15.10;;
6342;SDS011;3204;42.698;23.298;2023-11-22T12:48:27;24.25;;;16.05;;
6342;SDS011;3204;42.698;23.298;2023-11-22T12:50:55;21.73;;;16.40;;
6342;SDS011;3204;42.698;23.298;2023-11-22T12:53:21;27.05;;;17.15;;
6342;SDS011;3204;42.698;23.298;2023-11-22T12:55:48;28.70;;;15.52;;
6342;SDS011;3204;42.698;23.298;2023-11-22T12:58:15;23.17;;;15.55;;
6342;SDS011;3204;42.698;23.298;2023-11-22T13:00:41;22.63;;;14.75;;
6342;SDS011;3204;42.698;23.298;2023-11-22T13:03:09;24.90;;;14.60;;
6342;SDS011;3204;42.698;23.298;2023-11-22T13:05:44;17.65;;;13.50;;
6342;SDS011;3204;42.698;23.298;2023-11-22T13:08:11;21.27;;;15.07;;
6342;SDS011;3204;42.698;23.298;2023-11-22T13:10:43;15.70;;;13.60;;
6342;SDS011;3204;42.698;23.298;2023-11-22T13:13:10;18.55;;;13.52;;
6342;SDS011;3204;42.698;23.298;2023-11-22T13:15:35;17.38;;;13.98;;
6342;SDS011;3204;42.698;23.298;2023-11-22T13:18:01;16.73;;;14.02;;
6342;SDS011;3204;42.698;23.298;2023-11-22T13:20:27;21.33;;;13.73;;
6342;SDS011;3204;42.698;23.298;2023-11-22T13:22:53;18.27;;;13.20;;
6342;SDS011;3204;42.698;23.298;2023-11-22T13:25:19;14.90;;;12.90;;
6342;SDS011;3204;42.698;23.298;2023-11-22T13:27:48;19.52;;;13.50;;
6342;SDS011;3204;42.698;23.298;2023-11-22T13:30:14;17.30;;;13.70;;
6342;SDS011;3204;42.698;23.298;2023-11-22T13:32:40;15.48;;;12.68;;
6342;SDS011;3204;42.698;23.298;2023-11-22T13:35:07;13.10;;;11.45;;
6342;SDS011;3204;42.698;23.298;2023-11-22T13:37:39;15.03;;;12.50;;
6342;SDS011;3204;42.698;23.298;2023-11-22T13:40:09;12.63;;;11.10;;
6342;SDS011;3204;42.698;23.298;2023-11-22T13:43:00;17.92;;;12.43;;
6342;SDS011;3204;42.698;23.298;2023-11-22T13:45:25;17.65;;;13.68;;
6342;SDS011;3204;42.698;23.298;2023-11-22T13:47:52;20.50;;;14.25;;
6342;SDS011;3204;42.698;23.298;2023-11-22T13:50:23;14.13;;;12.70;;
6342;SDS011;3204;42.698;23.298;2023-11-22T13:52:51;22.67;;;13.15;;
6342;SDS011;3204;42.698;23.298;2023-11-22T13:55:18;16.57;;;12.57;;
6342;SDS011;3204;42.698;23.298;2023-11-22T13:57:50;17.90;;;11.87;;
6342;SDS011;3204;42.698;23.298;2023-11-22T14:00:17;12.90;;;11.50;;
6342;SDS011;3204;42.698;23.298;2023-11-22T14:02:53;13.98;;;11.98;;
6342;SDS011;3204;42.698;23.298;2023-11-22T14:05:29;17.77;;;12.30;;
6342;SDS011;3204;42.698;23.298;2023-11-22T14:07:55;13.25;;;11.48;;
6342;SDS011;3204;42.698;23.298;2023-11-22T14:10:21;19.07;;;11.93;;
6342;SDS011;3204;42.698;23.298;2023-11-22T14:12:47;21.45;;;12.52;;
6342;SDS011;3204;42.698;23.298;2023-11-22T14:15:13;17.50;;;11.60;;
6342;SDS011;3204;42.698;23.298;2023-11-22T14:17:39;14.40;;;11.10;;
6342;SDS011;3204;42.698;23.298;2023-11-22T14:20:08;12.15;;;10.90;;
6342;SDS011;3204;42.698;23.298;2023-11-22T14:22:37;12.77;;;11.52;;
6342;SDS011;3204;42.698;23.298;2023-11-22T14:25:04;13.02;;;11.20;;
6342;SDS011;3204;42.698;23.298;2023-11-22T14:27:37;20.17;;;13.02;;
6342;SDS011;3204;42.698;23.298;2023-11-22T14:30:03;16.60;;;12.85;;
6342;SDS011;3204;42.698;23.298;2023-11-22T14:32:32;19.75;;;12.82;;
6342;SDS011;3204;42.698;23.298;2023-11-22T14:34:59;14.90;;;12.73;;